createdAt,value
2023-05-10T00:01:33.604Z,71.12
2023-05-10T00:04:10.045Z,71.19
2023-05-10T00:06:46.363Z,70.91
2023-05-10T00:09:22.670Z,70.95
2023-05-10T00:11:59.729Z,71.04
2023-05-10T00:14:36.374Z,70.77
2023-05-10T00:17:12.708Z,70.45
2023-05-10T00:19:49.390Z,70.42
2023-05-10T00:22:25.902Z,70.52
2023-05-10T00:25:02.234Z,70.68
2023-05-10T00:27:38.939Z,70.72
2023-05-10T00:30:17.009Z,70.78
2023-05-10T00:32:53.749Z,70.87
2023-05-10T00:35:30.818Z,71.19
2023-05-10T00:38:07.260Z,71.55
2023-05-10T00:40:44.135Z,71.74
2023-05-10T00:43:25.500Z,71.87
2023-05-10T00:46:02.744Z,72.28
2023-05-10T00:48:39.211Z,72.50
2023-05-10T00:51:16.193Z,72.63
2023-05-10T00:53:53.391Z,72.66
2023-05-10T00:56:30.999Z,72.82
2023-05-10T00:59:07.620Z,72.80
2023-05-10T01:01:44.366Z,73.21
2023-05-10T01:04:26.562Z,73.25
2023-05-10T01:07:02.986Z,73.23
2023-05-10T01:09:39.654Z,73.17
2023-05-10T01:12:16.888Z,73.33
2023-05-10T01:14:53.787Z,73.58
2023-05-10T01:17:31.408Z,73.25
2023-05-10T01:20:10.182Z,73.27
2023-05-10T01:23:44.689Z,73.62
2023-05-10T01:26:52.399Z,73.45
2023-05-10T01:30:28.388Z,73.68
2023-05-10T01:33:15.691Z,73.63
2023-05-10T01:36:07.598Z,73.83
2023-05-10T01:38:52.578Z,74.02
2023-05-10T01:41:50.080Z,74.35
2023-05-10T01:44:37.847Z,74.03
2023-05-10T01:47:19.627Z,74.28
2023-05-10T01:50:02.210Z,74.40
2023-05-10T01:52:45.824Z,74.69
2023-05-10T01:55:27.565Z,74.71
2023-05-10T01:58:16.350Z,74.68
2023-05-10T02:00:56.723Z,74.68
2023-05-10T02:03:35.617Z,74.67
2023-05-10T02:06:17.406Z,75.01
2023-05-10T02:08:55.966Z,75.44
2023-05-10T02:11:34.486Z,75.87
2023-05-10T02:14:12.619Z,76.00
2023-05-10T02:16:50.405Z,75.94
2023-05-10T02:19:28.195Z,76.07
2023-05-10T02:22:09.368Z,76.27
2023-05-10T02:24:47.602Z,76.15
2023-05-10T02:27:25.405Z,76.13
2023-05-10T02:30:03.756Z,76.07
2023-05-10T02:32:41.929Z,76.07
2023-05-10T02:35:19.384Z,76.02
2023-05-10T02:37:57.168Z,76.10
2023-05-10T02:40:34.853Z,76.40
2023-05-10T02:43:23.923Z,76.81
2023-05-10T02:46:03.395Z,77.01
2023-05-10T02:48:40.283Z,77.04
2023-05-10T02:51:20.778Z,76.94
2023-05-10T02:54:03.666Z,77.06
2023-05-10T02:56:49.299Z,77.20
2023-05-10T02:59:25.898Z,77.30
2023-05-10T03:02:03.046Z,77.17
2023-05-10T03:04:39.478Z,77.55
2023-05-10T03:07:20.362Z,77.55
2023-05-10T03:09:57.862Z,77.69
2023-05-10T03:13:09.259Z,77.84
2023-05-10T03:16:01.590Z,77.78
2023-05-10T03:18:46.668Z,77.59
2023-05-10T03:21:28.159Z,77.40
2023-05-10T03:24:13.943Z,77.12
2023-05-10T03:26:51.790Z,77.05
2023-05-10T03:29:30.628Z,77.17
2023-05-10T03:32:07.730Z,77.01
2023-05-10T03:34:48.163Z,76.88
2023-05-10T03:37:24.603Z,76.81
2023-05-10T03:40:00.929Z,76.50
2023-05-10T03:42:39.053Z,76.45
2023-05-10T03:45:17.165Z,75.63
2023-05-10T03:47:53.608Z,74.11
2023-05-10T03:50:30.331Z,71.89
2023-05-10T03:53:06.742Z,69.29
2023-05-10T03:55:43.200Z,66.61
2023-05-10T03:58:19.556Z,64.22
2023-05-10T04:00:57.184Z,61.76
2023-05-10T04:03:33.761Z,58.83
2023-05-10T04:06:13.085Z,56.90
2023-05-10T04:08:49.451Z,54.67
2023-05-10T04:11:25.898Z,52.27
2023-05-10T04:14:02.192Z,50.46
2023-05-10T04:16:38.463Z,47.74
2023-05-10T04:19:15.354Z,47.46
2023-05-10T04:21:51.654Z,45.80
2023-05-10T04:24:28.066Z,44.57
2023-05-10T04:27:04.343Z,43.07
2023-05-10T04:29:40.722Z,41.93
2023-05-10T04:32:18.208Z,40.60
2023-05-10T04:34:54.660Z,37.97
2023-05-10T04:37:30.870Z,37.08
2023-05-10T04:40:09.302Z,35.53
2023-05-10T04:42:51.855Z,35.37
2023-05-10T04:45:28.771Z,32.71
2023-05-10T04:48:05.903Z,33.25
2023-05-10T04:50:43.114Z,32.56
2023-05-10T04:53:20.190Z,30.69
2023-05-10T04:55:56.561Z,32.18
2023-05-10T04:58:32.753Z,28.97
2023-05-10T05:01:13.801Z,30.52
2023-05-10T05:03:50.039Z,30.82
2023-05-10T05:06:28.402Z,30.03
2023-05-10T05:09:05.201Z,29.22
2023-05-10T05:11:42.738Z,28.98
2023-05-10T05:14:19.225Z,29.02
2023-05-10T05:16:56.914Z,28.51
2023-05-10T05:19:34.717Z,28.11
2023-05-10T05:22:12.095Z,27.76
2023-05-10T05:24:48.937Z,28.14
2023-05-10T05:27:27.382Z,28.08
2023-05-10T05:30:05.262Z,27.02
2023-05-10T05:32:42.487Z,26.97
2023-05-10T05:35:20.037Z,27.09
2023-05-10T05:37:57.460Z,27.14
2023-05-10T05:40:34.891Z,25.93
2023-05-10T05:43:12.312Z,26.65
2023-05-10T05:45:52.032Z,27.34
2023-05-10T05:48:31.756Z,25.72
2023-05-10T05:51:08.931Z,26.64
2023-05-10T05:53:48.799Z,26.32
2023-05-10T05:56:26.738Z,25.62
2023-05-10T05:59:04.735Z,25.87
2023-05-10T06:01:41.894Z,26.43
2023-05-10T06:04:20.651Z,26.64
2023-05-10T06:06:57.632Z,25.92
2023-05-10T06:09:34.562Z,25.70
2023-05-10T06:12:13.917Z,25.79
2023-05-10T06:14:50.822Z,25.56
2023-05-10T06:17:28.682Z,25.65
2023-05-10T06:20:06.289Z,25.44
2023-05-10T06:22:43.092Z,24.21
2023-05-10T06:25:20.591Z,24.08
2023-05-10T06:27:58.936Z,24.23
2023-05-10T06:30:35.709Z,23.80
2023-05-10T06:33:12.633Z,23.44
2023-05-10T06:35:49.530Z,23.86
2023-05-10T06:38:25.984Z,23.62
2023-05-10T06:41:02.879Z,23.95
2023-05-10T06:43:41.002Z,22.64
2023-05-10T06:46:17.647Z,23.61
2023-05-10T06:48:54.195Z,23.97
2023-05-10T06:51:30.865Z,23.82
2023-05-10T06:54:08.053Z,23.40
2023-05-10T06:56:44.263Z,23.67
2023-05-10T06:59:22.728Z,22.64
2023-05-10T07:01:59.361Z,23.42
2023-05-10T07:04:36.211Z,23.31
2023-05-10T07:07:12.747Z,23.11
2023-05-10T07:09:50.718Z,23.15
2023-05-10T07:12:27.293Z,23.82
2023-05-10T07:15:04.090Z,24.19
2023-05-10T07:17:43.114Z,24.02
2023-05-10T07:20:21.360Z,24.53
2023-05-10T07:22:58.207Z,24.48
2023-05-10T07:25:35.012Z,24.72
2023-05-10T07:28:15.288Z,23.55
2023-05-10T07:30:51.994Z,23.71
2023-05-10T07:33:28.868Z,23.65
2023-05-10T07:36:05.266Z,24.00
2023-05-10T07:38:41.866Z,23.66
2023-05-10T07:41:18.253Z,24.43
2023-05-10T07:46:00.823Z,25.72
2023-05-10T07:48:37.827Z,26.52
2023-05-10T07:51:14.746Z,26.19
2023-05-10T07:53:51.345Z,26.83
2023-05-10T07:56:34.131Z,27.03
2023-05-10T07:59:12.670Z,26.88
2023-05-10T08:01:50.297Z,27.56
2023-05-10T08:04:27.410Z,27.76
2023-05-10T08:07:04.039Z,27.19
2023-05-10T08:09:40.412Z,27.48
2023-05-10T08:12:16.851Z,28.61
2023-05-10T08:14:53.228Z,28.63
2023-05-10T08:17:29.803Z,28.84
2023-05-10T08:20:08.853Z,29.27
2023-05-10T08:22:45.146Z,29.96
2023-05-10T08:25:21.723Z,30.03
2023-05-10T08:27:58.142Z,29.40
2023-05-10T08:30:34.638Z,29.70
2023-05-10T08:33:10.903Z,30.35
2023-05-10T08:35:47.152Z,30.52
2023-05-10T08:38:25.948Z,31.21
2023-05-10T08:41:04.262Z,30.96
2023-05-10T08:43:42.605Z,30.90
2023-05-10T08:46:22.738Z,30.75
2023-05-10T08:49:00.606Z,31.16
2023-05-10T08:51:43.911Z,31.02
2023-05-10T08:54:20.704Z,30.11
2023-05-10T08:56:57.724Z,30.24
2023-05-10T08:59:34.503Z,30.37
2023-05-10T09:02:14.796Z,31.45
2023-05-10T09:04:53.218Z,31.06
2023-05-10T09:07:30.849Z,30.82
2023-05-10T09:10:10.906Z,31.37
2023-05-10T09:12:50.051Z,31.64
2023-05-10T09:15:27.219Z,31.69
2023-05-10T09:18:04.858Z,32.14
2023-05-10T09:20:41.405Z,32.39
2023-05-10T09:23:18.340Z,32.40
2023-05-10T09:26:07.884Z,31.93
2023-05-10T09:28:59.188Z,32.26
2023-05-10T09:34:41.147Z,32.48
2023-05-10T09:37:17.635Z,32.03
2023-05-10T09:40:00.135Z,32.46
2023-05-10T09:42:37.194Z,32.83
2023-05-10T09:45:15.499Z,33.08
2023-05-10T09:47:52.877Z,32.80
2023-05-10T09:50:30.920Z,33.12
2023-05-10T09:53:09.015Z,32.84
2023-05-10T09:55:51.986Z,33.74
2023-05-10T09:58:28.558Z,33.51
2023-05-10T10:01:05.660Z,33.67
2023-05-10T10:03:47.459Z,33.37
2023-05-10T10:06:30.462Z,32.95
2023-05-10T10:09:08.665Z,33.60
2023-05-10T10:11:46.015Z,33.84
2023-05-10T10:14:24.179Z,33.58
2023-05-10T10:19:43.733Z,34.23
2023-05-10T10:22:20.879Z,33.96
2023-05-10T10:24:58.402Z,34.05
2023-05-10T10:27:50.999Z,33.76
2023-05-10T10:30:38.575Z,34.18
2023-05-10T10:34:06.421Z,34.60
2023-05-10T10:36:50.997Z,34.52
2023-05-10T10:39:28.827Z,34.16
2023-05-10T10:42:07.164Z,34.45
2023-05-10T10:44:47.007Z,34.51
2023-05-10T10:47:34.444Z,34.21
2023-05-10T10:50:14.109Z,34.79
2023-05-10T10:52:55.026Z,34.60
2023-05-10T10:55:32.193Z,34.65
2023-05-10T10:58:09.905Z,34.61
2023-05-10T11:00:46.987Z,34.18
2023-05-10T11:03:24.799Z,34.12
2023-05-10T11:06:05.225Z,33.95
2023-05-10T11:08:49.243Z,34.23
2023-05-10T11:11:26.612Z,34.46
2023-05-10T11:14:09.173Z,34.43
2023-05-10T11:16:52.150Z,34.44
2023-05-10T11:19:32.643Z,34.68
2023-05-10T11:22:21.594Z,34.55
2023-05-10T11:25:05.141Z,34.60
2023-05-10T11:27:44.180Z,34.77
2023-05-10T11:30:21.762Z,34.21
2023-05-10T11:32:58.612Z,34.02
2023-05-10T11:35:41.004Z,34.34
2023-05-10T11:38:19.558Z,34.39
2023-05-10T11:40:57.416Z,34.31
2023-05-10T11:43:34.196Z,34.04
2023-05-10T11:46:13.438Z,33.78
2023-05-10T11:48:54.117Z,33.90
2023-05-10T11:51:31.426Z,33.90
2023-05-10T11:54:12.732Z,33.89
2023-05-10T11:56:49.367Z,34.53
2023-05-10T11:59:27.340Z,34.28
2023-05-10T12:02:04.385Z,34.14
2023-05-10T12:04:42.452Z,34.24
2023-05-10T12:07:19.645Z,34.49
2023-05-10T12:10:16.623Z,34.42
2023-05-10T12:12:55.913Z,34.53
2023-05-10T12:15:33.141Z,34.57
2023-05-10T12:18:12.672Z,34.56
2023-05-10T12:20:49.322Z,34.55
2023-05-10T12:23:26.051Z,34.52
2023-05-10T12:26:11.932Z,34.59
2023-05-10T12:28:49.150Z,34.85
2023-05-10T12:31:25.821Z,34.76
2023-05-10T12:34:02.418Z,35.04
2023-05-10T12:36:44.254Z,35.12
2023-05-10T12:39:20.979Z,34.75
2023-05-10T12:41:57.850Z,34.98
2023-05-10T12:44:34.405Z,34.59
2023-05-10T12:47:11.840Z,34.62
2023-05-10T12:49:49.125Z,34.50
2023-05-10T12:52:25.865Z,34.38
2023-05-10T12:55:04.163Z,34.43
2023-05-10T12:57:40.898Z,34.92
2023-05-10T13:00:20.827Z,35.01
2023-05-10T13:02:57.981Z,34.92
2023-05-10T13:05:35.129Z,34.58
2023-05-10T13:08:12.140Z,34.44
2023-05-10T13:10:48.752Z,34.30
2023-05-10T13:13:25.879Z,34.70
2023-05-10T13:16:02.747Z,34.64
2023-05-10T13:18:39.433Z,34.53
2023-05-10T13:21:16.376Z,34.69
2023-05-10T13:23:53.275Z,34.63
2023-05-10T13:26:30.419Z,34.52
2023-05-10T13:29:07.535Z,34.41
2023-05-10T13:31:44.743Z,34.56
2023-05-10T13:34:22.379Z,34.62
2023-05-10T13:36:59.412Z,34.71
2023-05-10T13:39:38.405Z,34.87
2023-05-10T13:42:15.478Z,34.68
2023-05-10T13:44:52.402Z,34.56
2023-05-10T13:47:28.849Z,34.57
2023-05-10T13:50:05.558Z,34.46
2023-05-10T13:52:42.050Z,34.31
2023-05-10T13:55:19.447Z,34.47
2023-05-10T13:57:56.404Z,34.46
2023-05-10T14:00:33.194Z,34.44
2023-05-10T14:03:12.439Z,34.62
2023-05-10T14:05:49.596Z,34.52
2023-05-10T14:08:28.118Z,34.61
2023-05-10T14:11:05.041Z,35.02
2023-05-10T14:13:42.009Z,34.72
2023-05-10T14:16:18.907Z,34.76
2023-05-10T14:18:56.308Z,34.79
2023-05-10T14:21:35.707Z,34.62
2023-05-10T14:24:13.145Z,34.68
2023-05-10T14:26:49.693Z,34.86
2023-05-10T14:29:27.118Z,35.00
2023-05-10T14:32:04.003Z,34.89
2023-05-10T14:34:40.747Z,34.95
2023-05-10T14:37:20.168Z,34.70
2023-05-10T14:39:57.216Z,34.90
2023-05-10T14:42:33.744Z,35.06
2023-05-10T14:45:13.247Z,35.02
2023-05-10T14:47:49.611Z,34.96
2023-05-10T14:50:36.619Z,34.66
2023-05-10T14:53:15.340Z,34.93
2023-05-10T14:55:51.954Z,34.90
2023-05-10T14:58:29.049Z,34.89
2023-05-10T15:01:06.464Z,35.00
2023-05-10T15:03:43.832Z,34.97
2023-05-10T15:06:25.307Z,35.02
2023-05-10T15:09:02.434Z,34.78
2023-05-10T15:11:39.833Z,34.73
2023-05-10T15:14:16.628Z,34.81
2023-05-10T15:16:53.220Z,34.94
2023-05-10T15:19:30.739Z,34.99
2023-05-10T15:22:08.015Z,35.04
2023-05-10T15:24:44.357Z,35.15
2023-05-10T15:27:20.864Z,34.75
2023-05-10T15:29:57.983Z,34.61
2023-05-10T15:32:34.368Z,34.78
2023-05-10T15:35:13.490Z,34.53
2023-05-10T15:37:51.404Z,35.02
2023-05-10T15:40:28.381Z,35.21
2023-05-10T15:43:06.334Z,35.68
2023-05-10T15:45:42.704Z,35.19
2023-05-10T15:48:19.479Z,35.16
2023-05-10T15:50:58.177Z,35.32
2023-05-10T15:53:34.927Z,35.43
2023-05-10T15:56:12.624Z,34.86
2023-05-10T15:58:49.902Z,35.15
2023-05-10T16:01:26.498Z,35.32
2023-05-10T16:04:03.031Z,34.98
2023-05-10T16:06:40.118Z,34.90
2023-05-10T16:09:16.868Z,35.13
2023-05-10T16:11:53.560Z,35.37
2023-05-10T16:14:30.558Z,35.51
2023-05-10T16:17:07.958Z,35.64
2023-05-10T16:19:44.695Z,35.79
2023-05-10T16:22:22.480Z,35.87
2023-05-10T16:25:00.290Z,35.49
2023-05-10T16:27:36.700Z,35.42
2023-05-10T16:30:15.478Z,35.63
2023-05-10T16:32:52.161Z,35.63
2023-05-10T16:35:29.961Z,35.76
2023-05-10T16:38:07.059Z,36.00
2023-05-10T16:40:43.819Z,35.96
2023-05-10T16:43:20.495Z,36.32
2023-05-10T16:45:56.957Z,36.44
2023-05-10T16:48:33.630Z,36.62
2023-05-10T16:51:10.882Z,36.53
2023-05-10T16:53:47.976Z,36.47
2023-05-10T16:56:24.575Z,36.66
2023-05-10T16:59:01.564Z,37.13
2023-05-10T17:01:40.191Z,37.69
2023-05-10T17:04:18.568Z,37.61
2023-05-10T17:06:55.411Z,37.47
2023-05-10T17:09:32.350Z,37.42
2023-05-10T17:12:08.977Z,37.44
2023-05-10T17:14:45.873Z,37.89
2023-05-10T17:17:23.613Z,38.39
2023-05-10T17:20:00.886Z,38.68
2023-05-10T17:22:37.713Z,39.05
2023-05-10T17:25:21.715Z,39.30
2023-05-10T17:27:58.574Z,39.68
2023-05-10T17:30:36.127Z,39.46
2023-05-10T17:33:12.982Z,39.48
2023-05-10T17:35:52.767Z,40.00
2023-05-10T17:38:29.878Z,40.33
2023-05-10T17:41:06.775Z,40.59
2023-05-10T17:43:43.544Z,41.20
2023-05-10T17:46:20.445Z,42.15
2023-05-10T17:48:57.218Z,42.14
2023-05-10T17:51:34.550Z,42.41
2023-05-10T17:54:11.375Z,42.68
2023-05-10T17:56:48.191Z,42.53
2023-05-10T17:59:24.995Z,42.74
2023-05-10T18:02:01.705Z,42.94
2023-05-10T18:04:40.512Z,42.89
2023-05-10T18:07:18.772Z,43.02
2023-05-10T18:09:55.801Z,43.59
2023-05-10T18:12:32.979Z,44.04
2023-05-10T18:15:12.425Z,44.40
2023-05-10T18:17:50.493Z,44.64
2023-05-10T18:20:28.899Z,44.82
2023-05-10T18:23:09.208Z,45.17
2023-05-10T18:25:45.990Z,45.35
2023-05-10T18:28:24.639Z,45.30
2023-05-10T18:31:01.699Z,45.52
2023-05-10T18:33:39.281Z,45.67
2023-05-10T18:36:16.907Z,46.22
2023-05-10T18:38:54.109Z,46.30
2023-05-10T18:41:30.914Z,46.41
2023-05-10T18:44:08.259Z,46.12
2023-05-10T18:46:47.441Z,46.11
2023-05-10T18:49:25.656Z,46.44
2023-05-10T18:52:03.665Z,46.66
2023-05-10T18:54:41.498Z,46.56
2023-05-10T18:57:24.128Z,46.71
2023-05-10T19:00:01.482Z,46.77
2023-05-10T19:02:39.065Z,47.19
2023-05-10T19:05:17.422Z,47.00
2023-05-10T19:07:57.138Z,46.77
2023-05-10T19:10:39.428Z,47.63
2023-05-10T19:13:17.639Z,47.52
2023-05-10T19:16:15.230Z,47.88
2023-05-10T19:18:55.830Z,48.08
2023-05-10T19:21:34.461Z,48.04
2023-05-10T19:24:15.085Z,48.77
2023-05-10T19:26:52.700Z,48.63
2023-05-10T19:29:30.996Z,49.13
2023-05-10T19:32:08.427Z,48.92
2023-05-10T19:34:46.678Z,48.99
2023-05-10T19:37:25.627Z,49.32
2023-05-10T19:40:05.273Z,49.68
2023-05-10T19:42:42.899Z,49.71
2023-05-10T19:45:24.347Z,49.77
2023-05-10T19:48:03.167Z,50.49
2023-05-10T19:50:43.957Z,50.51
2023-05-10T19:53:21.955Z,51.08
2023-05-10T19:56:07.711Z,50.89
2023-05-10T19:58:46.161Z,51.00
2023-05-10T20:01:26.204Z,51.09
2023-05-10T20:04:04.168Z,51.65
2023-05-10T20:06:41.508Z,51.72
2023-05-10T20:09:20.077Z,51.65
2023-05-10T20:11:57.334Z,52.05
2023-05-10T20:14:34.788Z,52.01
2023-05-10T20:17:12.079Z,52.15
2023-05-10T20:19:49.595Z,52.19
2023-05-10T20:22:26.364Z,52.23
2023-05-10T20:25:03.038Z,52.21
2023-05-10T20:27:40.216Z,52.11
2023-05-10T20:30:19.248Z,52.03
2023-05-10T20:32:56.337Z,52.68
2023-05-10T20:35:34.392Z,52.57
2023-05-10T20:38:11.753Z,52.98
2023-05-10T20:40:49.166Z,53.24
2023-05-10T20:43:26.135Z,53.45
2023-05-10T20:46:05.610Z,53.00
2023-05-10T20:48:42.622Z,53.19
2023-05-10T20:51:20.236Z,53.60
2023-05-10T20:53:57.244Z,53.74
2023-05-10T20:56:35.069Z,53.62
2023-05-10T20:59:12.117Z,53.74
2023-05-10T21:01:49.097Z,54.68
2023-05-10T21:04:25.836Z,54.52
2023-05-10T21:07:02.853Z,54.55
2023-05-10T21:09:39.717Z,54.67
2023-05-10T21:12:16.724Z,55.54
2023-05-10T21:14:53.777Z,55.78
2023-05-10T21:17:31.205Z,56.38
2023-05-10T21:20:09.884Z,56.14
2023-05-10T21:22:46.386Z,56.51
2023-05-10T21:25:25.432Z,56.91
2023-05-10T21:28:27.674Z,56.60
2023-05-10T21:31:04.312Z,57.25
2023-05-10T21:33:40.862Z,56.84
2023-05-10T21:36:17.503Z,57.79
2023-05-10T21:38:54.064Z,57.94
2023-05-10T21:41:30.491Z,58.05
2023-05-10T21:44:06.984Z,58.49
2023-05-10T21:46:44.456Z,58.12
2023-05-10T21:49:20.835Z,58.66
2023-05-10T21:51:57.132Z,58.82
2023-05-10T21:54:34.449Z,58.86
2023-05-10T21:57:10.878Z,58.71
2023-05-10T21:59:47.539Z,58.42
2023-05-10T22:02:23.858Z,58.86
2023-05-10T22:05:00.257Z,59.27
2023-05-10T22:07:36.958Z,58.98
2023-05-10T22:10:15.219Z,59.16
2023-05-10T22:12:51.732Z,59.23
2023-05-10T22:15:28.569Z,59.33
2023-05-10T22:18:05.463Z,59.56
2023-05-10T22:20:42.103Z,59.50
2023-05-10T22:23:18.794Z,60.11
2023-05-10T22:25:55.003Z,59.91
2023-05-10T22:28:31.747Z,59.59
2023-05-10T22:31:12.227Z,59.68
2023-05-10T22:33:48.903Z,59.46
2023-05-10T22:36:25.333Z,59.58
2023-05-10T22:39:01.807Z,59.71
2023-05-10T22:41:38.598Z,59.44
2023-05-10T22:44:14.992Z,59.59
2023-05-10T22:46:52.027Z,60.08
2023-05-10T22:49:28.726Z,60.33
2023-05-10T22:52:05.200Z,60.30
2023-05-10T22:54:41.581Z,60.03
2023-05-10T22:57:18.035Z,60.09
2023-05-10T22:59:55.021Z,60.43
2023-05-10T23:02:31.751Z,60.36
2023-05-10T23:05:10.852Z,60.21
2023-05-10T23:07:50.435Z,60.11
2023-05-10T23:10:27.203Z,60.21
2023-05-10T23:13:04.067Z,60.32
2023-05-10T23:15:40.486Z,60.19
2023-05-10T23:18:16.993Z,60.21
2023-05-10T23:20:54.167Z,60.33
2023-05-10T23:23:31.148Z,60.58
2023-05-10T23:26:08.907Z,61.34
2023-05-10T23:28:45.240Z,61.48
2023-05-10T23:31:21.685Z,61.05
2023-05-10T23:33:58.141Z,61.48
2023-05-10T23:36:34.445Z,61.61
2023-05-10T23:39:12.038Z,61.33
2023-05-10T23:41:48.463Z,61.45
2023-05-10T23:44:24.911Z,61.54
2023-05-10T23:47:01.164Z,61.47
2023-05-10T23:49:38.245Z,61.51
2023-05-10T23:52:14.647Z,61.43
2023-05-10T23:54:51.030Z,61.62
2023-05-10T23:57:27.342Z,61.77
